sensor_id;sensor_type;location;lat;lon;timestamp;P1;durP1;ratioP1;P2;durP2;ratioP2
48578;SDS011;34357;51.948;6.132;2023-01-01T00:01:23;35.50;;;17.90;;
48578;SDS011;34357;51.948;6.132;2023-01-01T00:03:50;27.77;;;12.82;;
48578;SDS011;34357;51.948;6.132;2023-01-01T00:06:16;36.45;;;15.52;;
48578;SDS011;34357;51.948;6.132;2023-01-01T00:08:42;32.33;;;13.73;;
48578;SDS011;34357;51.948;6.132;2023-01-01T00:11:08;27.52;;;12.07;;
48578;SDS011;34357;51.948;6.132;2023-01-01T00:13:35;20.80;;;9.25;;
48578;SDS011;34357;51.948;6.132;2023-01-01T00:16:09;24.90;;;10.77;;
48578;SDS011;34357;51.948;6.132;2023-01-01T00:18:37;24.77;;;11.18;;
48578;SDS011;34357;51.948;6.132;2023-01-01T00:21:07;18.85;;;6.30;;
48578;SDS011;34357;51.948;6.132;2023-01-01T00:23:37;17.85;;;9.32;;
48578;SDS011;34357;51.948;6.132;2023-01-01T00:26:12;30.08;;;14.77;;
48578;SDS011;34357;51.948;6.132;2023-01-01T00:28:42;16.58;;;7.43;;
48578;SDS011;34357;51.948;6.132;2023-01-01T00:31:09;23.35;;;7.78;;
48578;SDS011;34357;51.948;6.132;2023-01-01T00:33:38;20.33;;;7.63;;
48578;SDS011;34357;51.948;6.132;2023-01-01T00:38:38;21.98;;;8.35;;
48578;SDS011;34357;51.948;6.132;2023-01-01T00:41:04;28.27;;;13.48;;
48578;SDS011;34357;51.948;6.132;2023-01-01T00:43:30;16.42;;;7.88;;
48578;SDS011;34357;51.948;6.132;2023-01-01T00:45:56;12.38;;;5.35;;
48578;SDS011;34357;51.948;6.132;2023-01-01T00:48:21;16.67;;;5.70;;
48578;SDS011;34357;51.948;6.132;2023-01-01T00:50:49;12.52;;;5.22;;
48578;SDS011;34357;51.948;6.132;2023-01-01T00:53:16;27.15;;;4.93;;
48578;SDS011;34357;51.948;6.132;2023-01-01T00:55:42;17.77;;;5.20;;
48578;SDS011;34357;51.948;6.132;2023-01-01T00:58:09;11.32;;;4.13;;
48578;SDS011;34357;51.948;6.132;2023-01-01T01:00:35;13.43;;;4.15;;
48578;SDS011;34357;51.948;6.132;2023-01-01T01:03:01;14.15;;;4.82;;
48578;SDS011;34357;51.948;6.132;2023-01-01T01:05:28;15.85;;;4.72;;
48578;SDS011;34357;51.948;6.132;2023-01-01T01:07:53;13.35;;;4.28;;
48578;SDS011;34357;51.948;6.132;2023-01-01T01:10:19;15.80;;;3.90;;
48578;SDS011;34357;51.948;6.132;2023-01-01T01:12:46;13.50;;;3.67;;
48578;SDS011;34357;51.948;6.132;2023-01-01T01:15:12;17.50;;;4.55;;
48578;SDS011;34357;51.948;6.132;2023-01-01T01:17:39;11.00;;;4.03;;
48578;SDS011;34357;51.948;6.132;2023-01-01T01:20:05;13.45;;;3.53;;
48578;SDS011;34357;51.948;6.132;2023-01-01T01:22:32;18.50;;;4.25;;
48578;SDS011;34357;51.948;6.132;2023-01-01T01:24:58;16.80;;;4.95;;
48578;SDS011;34357;51.948;6.132;2023-01-01T01:27:24;11.15;;;4.60;;
48578;SDS011;34357;51.948;6.132;2023-01-01T01:29:51;9.07;;;2.75;;
48578;SDS011;34357;51.948;6.132;2023-01-01T01:32:17;12.70;;;3.15;;
48578;SDS011;34357;51.948;6.132;2023-01-01T01:34:43;16.65;;;3.85;;
48578;SDS011;34357;51.948;6.132;2023-01-01T01:37:09;10.63;;;2.92;;
48578;SDS011;34357;51.948;6.132;2023-01-01T01:39:36;12.60;;;3.85;;
48578;SDS011;34357;51.948;6.132;2023-01-01T01:42:02;10.18;;;3.08;;
48578;SDS011;34357;51.948;6.132;2023-01-01T01:50:20;6.72;;;1.92;;
48578;SDS011;34357;51.948;6.132;2023-01-01T01:55:27;11.02;;;2.78;;
48578;SDS011;34357;51.948;6.132;2023-01-01T01:57:55;11.80;;;2.92;;
48578;SDS011;34357;51.948;6.132;2023-01-01T02:00:20;7.55;;;2.92;;
48578;SDS011;34357;51.948;6.132;2023-01-01T02:02:54;7.93;;;2.42;;
48578;SDS011;34357;51.948;6.132;2023-01-01T02:05:24;12.85;;;3.00;;
48578;SDS011;34357;51.948;6.132;2023-01-01T02:07:50;12.18;;;4.60;;
48578;SDS011;34357;51.948;6.132;2023-01-01T02:10:17;14.60;;;3.28;;
48578;SDS011;34357;51.948;6.132;2023-01-01T02:12:43;8.77;;;3.10;;
48578;SDS011;34357;51.948;6.132;2023-01-01T02:15:09;8.02;;;2.42;;
48578;SDS011;34357;51.948;6.132;2023-01-01T02:30:37;28.73;;;12.52;;
48578;SDS011;34357;51.948;6.132;2023-01-01T02:33:06;9.95;;;2.92;;
48578;SDS011;34357;51.948;6.132;2023-01-01T02:35:58;12.13;;;2.13;;
48578;SDS011;34357;51.948;6.132;2023-01-01T02:40:59;13.98;;;2.53;;
48578;SDS011;34357;51.948;6.132;2023-01-01T02:43:29;15.05;;;2.58;;
48578;SDS011;34357;51.948;6.132;2023-01-01T02:45:55;11.57;;;2.60;;
48578;SDS011;34357;51.948;6.132;2023-01-01T02:51:11;7.63;;;2.67;;
48578;SDS011;34357;51.948;6.132;2023-01-01T02:56:31;14.70;;;2.60;;
48578;SDS011;34357;51.948;6.132;2023-01-01T02:59:14;5.28;;;2.05;;
48578;SDS011;34357;51.948;6.132;2023-01-01T03:05:14;14.25;;;3.20;;
48578;SDS011;34357;51.948;6.132;2023-01-01T03:07:40;6.35;;;2.38;;
48578;SDS011;34357;51.948;6.132;2023-01-01T03:21:57;11.38;;;2.20;;
48578;SDS011;34357;51.948;6.132;2023-01-01T03:24:35;12.35;;;2.28;;
48578;SDS011;34357;51.948;6.132;2023-01-01T03:27:06;10.00;;;2.80;;
48578;SDS011;34357;51.948;6.132;2023-01-01T03:29:40;6.68;;;2.40;;
48578;SDS011;34357;51.948;6.132;2023-01-01T03:32:07;11.68;;;2.85;;
48578;SDS011;34357;51.948;6.132;2023-01-01T03:34:39;10.45;;;2.40;;
48578;SDS011;34357;51.948;6.132;2023-01-01T03:37:14;8.88;;;2.78;;
48578;SDS011;34357;51.948;6.132;2023-01-01T03:39:46;11.77;;;2.45;;
48578;SDS011;34357;51.948;6.132;2023-01-01T03:42:24;8.25;;;1.98;;
48578;SDS011;34357;51.948;6.132;2023-01-01T03:45:00;10.00;;;2.63;;
48578;SDS011;34357;51.948;6.132;2023-01-01T03:47:33;8.30;;;2.42;;
48578;SDS011;34357;51.948;6.132;2023-01-01T03:49:59;11.00;;;2.30;;
48578;SDS011;34357;51.948;6.132;2023-01-01T03:52:31;10.45;;;2.35;;
48578;SDS011;34357;51.948;6.132;2023-01-01T03:55:04;7.72;;;2.45;;
48578;SDS011;34357;51.948;6.132;2023-01-01T03:57:41;7.53;;;2.25;;
48578;SDS011;34357;51.948;6.132;2023-01-01T04:03:08;10.38;;;2.15;;
48578;SDS011;34357;51.948;6.132;2023-01-01T04:05:41;7.10;;;1.98;;
48578;SDS011;34357;51.948;6.132;2023-01-01T04:08:08;9.52;;;2.13;;
48578;SDS011;34357;51.948;6.132;2023-01-01T04:10:36;7.25;;;1.77;;
48578;SDS011;34357;51.948;6.132;2023-01-01T04:13:06;5.28;;;1.70;;
48578;SDS011;34357;51.948;6.132;2023-01-01T04:15:32;6.05;;;1.63;;
48578;SDS011;34357;51.948;6.132;2023-01-01T04:18:00;8.27;;;2.17;;
48578;SDS011;34357;51.948;6.132;2023-01-01T04:20:26;9.57;;;2.58;;
48578;SDS011;34357;51.948;6.132;2023-01-01T04:22:56;7.60;;;1.55;;
48578;SDS011;34357;51.948;6.132;2023-01-01T04:25:23;6.10;;;1.50;;
48578;SDS011;34357;51.948;6.132;2023-01-01T04:27:49;6.57;;;1.70;;
48578;SDS011;34357;51.948;6.132;2023-01-01T04:30:15;8.65;;;1.25;;
48578;SDS011;34357;51.948;6.132;2023-01-01T04:32:40;14.73;;;2.10;;
48578;SDS011;34357;51.948;6.132;2023-01-01T04:35:07;8.73;;;2.00;;
48578;SDS011;34357;51.948;6.132;2023-01-01T04:37:36;9.32;;;1.73;;
48578;SDS011;34357;51.948;6.132;2023-01-01T04:40:03;8.18;;;1.63;;
48578;SDS011;34357;51.948;6.132;2023-01-01T04:42:29;6.20;;;1.42;;
48578;SDS011;34357;51.948;6.132;2023-01-01T04:44:55;2.67;;;0.90;;
48578;SDS011;34357;51.948;6.132;2023-01-01T04:47:21;6.00;;;2.00;;
48578;SDS011;34357;51.948;6.132;2023-01-01T04:49:47;5.38;;;1.60;;
48578;SDS011;34357;51.948;6.132;2023-01-01T04:52:13;4.40;;;1.42;;
48578;SDS011;34357;51.948;6.132;2023-01-01T04:54:38;10.43;;;2.15;;
48578;SDS011;34357;51.948;6.132;2023-01-01T04:57:04;10.48;;;1.83;;
48578;SDS011;34357;51.948;6.132;2023-01-01T04:59:30;9.30;;;1.83;;
48578;SDS011;34357;51.948;6.132;2023-01-01T05:01:56;5.50;;;1.60;;
48578;SDS011;34357;51.948;6.132;2023-01-01T05:04:22;8.40;;;2.08;;
48578;SDS011;34357;51.948;6.132;2023-01-01T05:06:48;11.75;;;1.83;;
48578;SDS011;34357;51.948;6.132;2023-01-01T05:09:13;7.82;;;1.88;;
48578;SDS011;34357;51.948;6.132;2023-01-01T05:11:39;7.10;;;1.70;;
48578;SDS011;34357;51.948;6.132;2023-01-01T05:14:05;7.15;;;1.80;;
48578;SDS011;34357;51.948;6.132;2023-01-01T05:16:32;6.60;;;1.70;;
48578;SDS011;34357;51.948;6.132;2023-01-01T05:19:00;8.98;;;2.03;;
48578;SDS011;34357;51.948;6.132;2023-01-01T05:21:30;8.77;;;1.90;;
48578;SDS011;34357;51.948;6.132;2023-01-01T05:23:58;7.30;;;1.73;;
48578;SDS011;34357;51.948;6.132;2023-01-01T05:26:26;9.85;;;1.95;;
48578;SDS011;34357;51.948;6.132;2023-01-01T05:28:54;6.35;;;1.67;;
48578;SDS011;34357;51.948;6.132;2023-01-01T05:31:21;7.90;;;1.67;;
48578;SDS011;34357;51.948;6.132;2023-01-01T05:33:48;8.00;;;1.90;;
48578;SDS011;34357;51.948;6.132;2023-01-01T05:36:18;5.32;;;1.77;;
48578;SDS011;34357;51.948;6.132;2023-01-01T05:38:46;5.90;;;1.80;;
48578;SDS011;34357;51.948;6.132;2023-01-01T05:41:12;7.03;;;1.90;;
48578;SDS011;34357;51.948;6.132;2023-01-01T05:43:39;5.18;;;1.48;;
48578;SDS011;34357;51.948;6.132;2023-01-01T05:46:16;9.23;;;1.50;;
48578;SDS011;34357;51.948;6.132;2023-01-01T05:48:43;10.43;;;2.67;;
48578;SDS011;34357;51.948;6.132;2023-01-01T05:51:10;12.82;;;1.85;;
48578;SDS011;34357;51.948;6.132;2023-01-01T05:53:37;10.35;;;2.10;;
48578;SDS011;34357;51.948;6.132;2023-01-01T05:56:03;10.45;;;2.00;;
48578;SDS011;34357;51.948;6.132;2023-01-01T05:58:31;6.28;;;1.70;;
48578;SDS011;34357;51.948;6.132;2023-01-01T06:01:04;9.93;;;2.00;;
48578;SDS011;34357;51.948;6.132;2023-01-01T06:03:40;11.43;;;1.88;;
48578;SDS011;34357;51.948;6.132;2023-01-01T06:06:08;10.52;;;2.38;;
48578;SDS011;34357;51.948;6.132;2023-01-01T06:08:35;7.85;;;2.38;;
48578;SDS011;34357;51.948;6.132;2023-01-01T06:11:02;10.13;;;2.10;;
48578;SDS011;34357;51.948;6.132;2023-01-01T06:13:30;7.50;;;1.80;;
48578;SDS011;34357;51.948;6.132;2023-01-01T06:15:56;10.35;;;1.90;;
48578;SDS011;34357;51.948;6.132;2023-01-01T06:18:23;5.70;;;1.30;;
48578;SDS011;34357;51.948;6.132;2023-01-01T06:20:50;6.40;;;1.80;;
48578;SDS011;34357;51.948;6.132;2023-01-01T06:23:16;6.05;;;1.65;;
48578;SDS011;34357;51.948;6.132;2023-01-01T06:25:42;9.13;;;2.22;;
48578;SDS011;34357;51.948;6.132;2023-01-01T06:28:08;7.20;;;1.20;;
48578;SDS011;34357;51.948;6.132;2023-01-01T06:30:33;8.00;;;1.60;;
48578;SDS011;34357;51.948;6.132;2023-01-01T06:33:00;13.32;;;2.53;;
48578;SDS011;34357;51.948;6.132;2023-01-01T06:35:26;5.85;;;1.08;;
48578;SDS011;34357;51.948;6.132;2023-01-01T06:37:51;3.20;;;1.20;;
48578;SDS011;34357;51.948;6.132;2023-01-01T06:40:17;8.27;;;1.55;;
48578;SDS011;34357;51.948;6.132;2023-01-01T06:42:43;10.20;;;2.03;;
48578;SDS011;34357;51.948;6.132;2023-01-01T06:45:09;15.20;;;2.05;;
48578;SDS011;34357;51.948;6.132;2023-01-01T06:47:35;6.03;;;1.80;;
48578;SDS011;34357;51.948;6.132;2023-01-01T06:50:04;10.77;;;1.88;;
48578;SDS011;34357;51.948;6.132;2023-01-01T06:52:30;12.30;;;2.08;;
48578;SDS011;34357;51.948;6.132;2023-01-01T06:54:55;7.38;;;1.15;;
48578;SDS011;34357;51.948;6.132;2023-01-01T06:57:22;4.60;;;1.20;;
48578;SDS011;34357;51.948;6.132;2023-01-01T06:59:48;9.65;;;1.50;;
48578;SDS011;34357;51.948;6.132;2023-01-01T07:02:14;6.30;;;1.33;;
48578;SDS011;34357;51.948;6.132;2023-01-01T07:04:39;3.45;;;0.85;;
48578;SDS011;34357;51.948;6.132;2023-01-01T07:07:05;1.17;;;0.47;;
48578;SDS011;34357;51.948;6.132;2023-01-01T07:09:31;4.70;;;1.20;;
48578;SDS011;34357;51.948;6.132;2023-01-01T07:11:56;4.88;;;0.90;;
48578;SDS011;34357;51.948;6.132;2023-01-01T07:14:22;3.90;;;0.60;;
48578;SDS011;34357;51.948;6.132;2023-01-01T07:16:48;5.10;;;0.80;;
48578;SDS011;34357;51.948;6.132;2023-01-01T07:19:13;4.18;;;0.65;;
48578;SDS011;34357;51.948;6.132;2023-01-01T07:21:40;4.30;;;1.23;;
48578;SDS011;34357;51.948;6.132;2023-01-01T07:24:15;7.72;;;0.52;;
48578;SDS011;34357;51.948;6.132;2023-01-01T07:26:41;3.83;;;0.90;;
48578;SDS011;34357;51.948;6.132;2023-01-01T07:29:07;2.47;;;0.73;;
48578;SDS011;34357;51.948;6.132;2023-01-01T07:31:33;5.75;;;1.45;;
48578;SDS011;34357;51.948;6.132;2023-01-01T07:34:00;6.25;;;1.27;;
48578;SDS011;34357;51.948;6.132;2023-01-01T07:36:26;7.68;;;1.05;;
48578;SDS011;34357;51.948;6.132;2023-01-01T07:38:53;3.67;;;0.68;;
48578;SDS011;34357;51.948;6.132;2023-01-01T07:41:19;5.93;;;0.90;;
48578;SDS011;34357;51.948;6.132;2023-01-01T07:43:44;3.72;;;0.93;;
48578;SDS011;34357;51.948;6.132;2023-01-01T07:46:13;5.10;;;0.88;;
48578;SDS011;34357;51.948;6.132;2023-01-01T07:48:41;1.53;;;0.60;;
48578;SDS011;34357;51.948;6.132;2023-01-01T07:51:07;5.38;;;1.25;;
48578;SDS011;34357;51.948;6.132;2023-01-01T07:53:32;4.47;;;0.90;;
48578;SDS011;34357;51.948;6.132;2023-01-01T07:55:58;9.15;;;1.10;;
48578;SDS011;34357;51.948;6.132;2023-01-01T07:58:24;2.92;;;1.02;;
48578;SDS011;34357;51.948;6.132;2023-01-01T08:00:50;7.40;;;1.30;;
48578;SDS011;34357;51.948;6.132;2023-01-01T08:03:15;7.22;;;1.42;;
48578;SDS011;34357;51.948;6.132;2023-01-01T08:05:41;8.88;;;1.30;;
48578;SDS011;34357;51.948;6.132;2023-01-01T08:08:07;5.80;;;1.15;;
48578;SDS011;34357;51.948;6.132;2023-01-01T08:10:34;6.15;;;1.08;;
48578;SDS011;34357;51.948;6.132;2023-01-01T08:13:04;4.72;;;1.00;;
48578;SDS011;34357;51.948;6.132;2023-01-01T08:15:31;7.50;;;0.90;;
48578;SDS011;34357;51.948;6.132;2023-01-01T08:18:02;8.63;;;1.35;;
48578;SDS011;34357;51.948;6.132;2023-01-01T08:20:29;5.43;;;1.05;;
48578;SDS011;34357;51.948;6.132;2023-01-01T08:22:56;6.50;;;1.00;;
48578;SDS011;34357;51.948;6.132;2023-01-01T08:25:23;5.80;;;1.13;;
48578;SDS011;34357;51.948;6.132;2023-01-01T08:27:49;4.75;;;1.25;;
48578;SDS011;34357;51.948;6.132;2023-01-01T08:30:15;7.30;;;1.10;;
48578;SDS011;34357;51.948;6.132;2023-01-01T08:32:41;8.50;;;1.77;;
48578;SDS011;34357;51.948;6.132;2023-01-01T08:35:07;6.00;;;1.10;;
48578;SDS011;34357;51.948;6.132;2023-01-01T08:37:33;5.63;;;1.05;;
48578;SDS011;34357;51.948;6.132;2023-01-01T08:39:59;6.68;;;1.38;;
48578;SDS011;34357;51.948;6.132;2023-01-01T08:42:25;8.90;;;1.60;;
48578;SDS011;34357;51.948;6.132;2023-01-01T08:44:50;8.05;;;2.03;;
48578;SDS011;34357;51.948;6.132;2023-01-01T08:47:17;7.68;;;1.85;;
48578;SDS011;34357;51.948;6.132;2023-01-01T08:49:47;9.82;;;1.50;;
48578;SDS011;34357;51.948;6.132;2023-01-01T08:52:14;10.57;;;1.85;;
48578;SDS011;34357;51.948;6.132;2023-01-01T08:54:40;5.53;;;1.33;;
48578;SDS011;34357;51.948;6.132;2023-01-01T08:57:06;9.40;;;1.55;;
48578;SDS011;34357;51.948;6.132;2023-01-01T08:59:32;13.23;;;2.83;;
48578;SDS011;34357;51.948;6.132;2023-01-01T09:01:58;9.20;;;2.00;;
48578;SDS011;34357;51.948;6.132;2023-01-01T09:04:24;10.05;;;2.28;;
48578;SDS011;34357;51.948;6.132;2023-01-01T09:06:50;7.50;;;1.95;;
48578;SDS011;34357;51.948;6.132;2023-01-01T09:09:15;10.73;;;2.53;;
48578;SDS011;34357;51.948;6.132;2023-01-01T09:11:52;8.68;;;2.03;;
48578;SDS011;34357;51.948;6.132;2023-01-01T09:14:20;9.25;;;1.95;;
48578;SDS011;34357;51.948;6.132;2023-01-01T09:16:46;13.23;;;1.95;;
48578;SDS011;34357;51.948;6.132;2023-01-01T09:19:12;9.82;;;2.10;;
48578;SDS011;34357;51.948;6.132;2023-01-01T09:21:38;8.35;;;1.95;;
48578;SDS011;34357;51.948;6.132;2023-01-01T09:24:04;10.20;;;2.20;;
48578;SDS011;34357;51.948;6.132;2023-01-01T09:26:30;7.68;;;1.77;;
48578;SDS011;34357;51.948;6.132;2023-01-01T09:28:56;8.52;;;1.60;;
48578;SDS011;34357;51.948;6.132;2023-01-01T09:31:22;8.10;;;1.90;;
48578;SDS011;34357;51.948;6.132;2023-01-01T09:33:48;7.05;;;1.90;;
48578;SDS011;34357;51.948;6.132;2023-01-01T09:38:49;9.77;;;1.48;;
48578;SDS011;34357;51.948;6.132;2023-01-01T09:49:42;11.85;;;2.60;;
48578;SDS011;34357;51.948;6.132;2023-01-01T09:52:12;9.73;;;1.85;;
48578;SDS011;34357;51.948;6.132;2023-01-01T09:54:42;11.02;;;1.67;;
48578;SDS011;34357;51.948;6.132;2023-01-01T09:57:22;7.20;;;1.90;;
48578;SDS011;34357;51.948;6.132;2023-01-01T09:59:52;8.68;;;2.17;;
48578;SDS011;34357;51.948;6.132;2023-01-01T10:02:33;12.77;;;1.67;;
48578;SDS011;34357;51.948;6.132;2023-01-01T10:05:28;17.10;;;2.10;;
48578;SDS011;34357;51.948;6.132;2023-01-01T10:08:20;8.38;;;2.35;;
48578;SDS011;34357;51.948;6.132;2023-01-01T10:11:08;8.90;;;1.90;;
48578;SDS011;34357;51.948;6.132;2023-01-01T10:13:42;10.60;;;1.80;;
48578;SDS011;34357;51.948;6.132;2023-01-01T10:18:54;14.10;;;2.60;;
48578;SDS011;34357;51.948;6.132;2023-01-01T10:21:33;12.68;;;3.72;;
48578;SDS011;34357;51.948;6.132;2023-01-01T10:26:38;14.45;;;3.30;;
48578;SDS011;34357;51.948;6.132;2023-01-01T10:29:14;10.50;;;2.10;;
48578;SDS011;34357;51.948;6.132;2023-01-01T10:31:46;10.07;;;2.75;;
48578;SDS011;34357;51.948;6.132;2023-01-01T10:34:25;14.13;;;2.78;;
48578;SDS011;34357;51.948;6.132;2023-01-01T10:36:53;8.93;;;2.17;;
48578;SDS011;34357;51.948;6.132;2023-01-01T10:39:21;8.05;;;1.58;;
48578;SDS011;34357;51.948;6.132;2023-01-01T10:41:48;10.55;;;1.88;;
48578;SDS011;34357;51.948;6.132;2023-01-01T10:44:20;11.32;;;1.80;;
48578;SDS011;34357;51.948;6.132;2023-01-01T10:46:57;9.80;;;1.95;;
48578;SDS011;34357;51.948;6.132;2023-01-01T10:49:28;12.73;;;2.33;;
48578;SDS011;34357;51.948;6.132;2023-01-01T10:51:54;16.00;;;2.78;;
48578;SDS011;34357;51.948;6.132;2023-01-01T10:56:56;14.23;;;2.38;;
48578;SDS011;34357;51.948;6.132;2023-01-01T10:59:55;11.77;;;1.92;;
48578;SDS011;34357;51.948;6.132;2023-01-01T11:04:39;7.75;;;1.90;;
48578;SDS011;34357;51.948;6.132;2023-01-01T11:07:05;9.52;;;2.17;;
48578;SDS011;34357;51.948;6.132;2023-01-01T11:09:31;9.48;;;1.90;;
48578;SDS011;34357;51.948;6.132;2023-01-01T11:12:04;6.53;;;1.52;;
48578;SDS011;34357;51.948;6.132;2023-01-01T11:17:28;10.73;;;2.22;;
48578;SDS011;34357;51.948;6.132;2023-01-01T11:19:57;10.60;;;1.80;;
48578;SDS011;34357;51.948;6.132;2023-01-01T11:22:35;9.27;;;2.00;;
48578;SDS011;34357;51.948;6.132;2023-01-01T11:25:09;6.95;;;1.88;;
48578;SDS011;34357;51.948;6.132;2023-01-01T11:27:43;11.60;;;2.90;;
48578;SDS011;34357;51.948;6.132;2023-01-01T11:30:25;9.88;;;2.70;;
48578;SDS011;34357;51.948;6.132;2023-01-01T11:32:53;10.93;;;2.92;;
48578;SDS011;34357;51.948;6.132;2023-01-01T11:35:26;12.98;;;3.22;;
48578;SDS011;34357;51.948;6.132;2023-01-01T11:37:53;12.98;;;3.50;;
48578;SDS011;34357;51.948;6.132;2023-01-01T11:40:34;19.40;;;8.48;;
48578;SDS011;34357;51.948;6.132;2023-01-01T11:43:03;22.80;;;11.75;;
48578;SDS011;34357;51.948;6.132;2023-01-01T11:45:31;15.27;;;7.53;;
48578;SDS011;34357;51.948;6.132;2023-01-01T11:47:59;11.57;;;4.68;;
48578;SDS011;34357;51.948;6.132;2023-01-01T11:50:28;13.65;;;4.30;;
48578;SDS011;34357;51.948;6.132;2023-01-01T11:52:56;15.05;;;4.15;;
48578;SDS011;34357;51.948;6.132;2023-01-01T11:58:17;15.90;;;5.43;;
48578;SDS011;34357;51.948;6.132;2023-01-01T12:00:49;22.13;;;6.13;;
48578;SDS011;34357;51.948;6.132;2023-01-01T12:08:22;20.35;;;6.38;;
48578;SDS011;34357;51.948;6.132;2023-01-01T12:10:57;23.83;;;7.50;;
48578;SDS011;34357;51.948;6.132;2023-01-01T12:13:28;17.15;;;7.05;;
48578;SDS011;34357;51.948;6.132;2023-01-01T12:16:13;18.50;;;8.82;;
48578;SDS011;34357;51.948;6.132;2023-01-01T12:18:45;29.85;;;12.35;;
48578;SDS011;34357;51.948;6.132;2023-01-01T12:23:48;19.20;;;7.60;;
48578;SDS011;34357;51.948;6.132;2023-01-01T12:29:11;21.88;;;8.00;;
48578;SDS011;34357;51.948;6.132;2023-01-01T12:34:38;21.00;;;6.13;;
48578;SDS011;34357;51.948;6.132;2023-01-01T12:37:36;16.83;;;5.50;;
48578;SDS011;34357;51.948;6.132;2023-01-01T12:43:03;16.13;;;4.82;;
48578;SDS011;34357;51.948;6.132;2023-01-01T12:59:31;22.20;;;4.93;;
48578;SDS011;34357;51.948;6.132;2023-01-01T13:02:01;17.38;;;4.60;;
48578;SDS011;34357;51.948;6.132;2023-01-01T13:04:34;20.17;;;4.22;;
48578;SDS011;34357;51.948;6.132;2023-01-01T13:07:02;15.50;;;4.28;;
48578;SDS011;34357;51.948;6.132;2023-01-01T13:09:33;20.25;;;3.88;;
48578;SDS011;34357;51.948;6.132;2023-01-01T13:12:05;18.13;;;3.65;;
48578;SDS011;34357;51.948;6.132;2023-01-01T13:14:38;17.75;;;3.13;;
48578;SDS011;34357;51.948;6.132;2023-01-01T13:17:15;15.38;;;3.22;;
48578;SDS011;34357;51.948;6.132;2023-01-01T13:22:41;16.05;;;2.83;;
48578;SDS011;34357;51.948;6.132;2023-01-01T13:38:43;16.13;;;3.30;;
48578;SDS011;34357;51.948;6.132;2023-01-01T13:44:09;13.02;;;2.42;;
48578;SDS011;34357;51.948;6.132;2023-01-01T13:54:51;13.15;;;2.92;;
48578;SDS011;34357;51.948;6.132;2023-01-01T13:58:20;15.43;;;3.05;;
48578;SDS011;34357;51.948;6.132;2023-01-01T14:00:44;16.33;;;3.17;;
48578;SDS011;34357;51.948;6.132;2023-01-01T14:03:43;16.58;;;4.20;;
48578;SDS011;34357;51.948;6.132;2023-01-01T14:06:26;14.20;;;3.58;;
48578;SDS011;34357;51.948;6.132;2023-01-01T14:09:06;16.45;;;3.65;;
48578;SDS011;34357;51.948;6.132;2023-01-01T14:11:38;18.90;;;3.13;;
48578;SDS011;34357;51.948;6.132;2023-01-01T14:16:52;17.45;;;4.55;;
48578;SDS011;34357;51.948;6.132;2023-01-01T14:19:24;18.67;;;4.13;;
48578;SDS011;34357;51.948;6.132;2023-01-01T14:21:51;19.55;;;4.47;;
48578;SDS011;34357;51.948;6.132;2023-01-01T14:24:18;16.80;;;4.63;;
48578;SDS011;34357;51.948;6.132;2023-01-01T14:26:45;20.45;;;5.82;;
48578;SDS011;34357;51.948;6.132;2023-01-01T14:29:23;24.40;;;7.90;;
48578;SDS011;34357;51.948;6.132;2023-01-01T14:31:52;16.67;;;6.25;;
48578;SDS011;34357;51.948;6.132;2023-01-01T14:34:22;19.77;;;7.35;;
48578;SDS011;34357;51.948;6.132;2023-01-01T14:36:51;25.77;;;7.70;;
48578;SDS011;34357;51.948;6.132;2023-01-01T14:39:23;20.00;;;7.45;;
48578;SDS011;34357;51.948;6.132;2023-01-01T14:41:52;18.40;;;5.70;;
48578;SDS011;34357;51.948;6.132;2023-01-01T14:44:31;22.13;;;5.22;;
48578;SDS011;34357;51.948;6.132;2023-01-01T14:47:00;17.05;;;4.75;;
48578;SDS011;34357;51.948;6.132;2023-01-01T14:51:59;18.33;;;5.82;;
48578;SDS011;34357;51.948;6.132;2023-01-01T14:54:37;19.50;;;6.22;;
48578;SDS011;34357;51.948;6.132;2023-01-01T14:57:09;27.55;;;7.18;;
48578;SDS011;34357;51.948;6.132;2023-01-01T14:59:47;23.73;;;6.32;;
48578;SDS011;34357;51.948;6.132;2023-01-01T15:02:30;20.25;;;6.32;;
48578;SDS011;34357;51.948;6.132;2023-01-01T15:05:25;14.98;;;6.45;;
48578;SDS011;34357;51.948;6.132;2023-01-01T15:07:57;23.33;;;6.38;;
48578;SDS011;34357;51.948;6.132;2023-01-01T15:10:25;23.20;;;5.00;;
48578;SDS011;34357;51.948;6.132;2023-01-01T15:12:53;17.10;;;4.38;;
48578;SDS011;34357;51.948;6.132;2023-01-01T15:15:32;14.93;;;3.83;;
48578;SDS011;34357;51.948;6.132;2023-01-01T15:17:59;16.17;;;4.28;;
48578;SDS011;34357;51.948;6.132;2023-01-01T15:20:25;19.83;;;4.15;;
48578;SDS011;34357;51.948;6.132;2023-01-01T15:22:51;15.40;;;3.55;;
48578;SDS011;34357;51.948;6.132;2023-01-01T15:25:18;21.95;;;4.30;;
48578;SDS011;34357;51.948;6.132;2023-01-01T15:27:47;15.00;;;3.67;;
48578;SDS011;34357;51.948;6.132;2023-01-01T15:30:25;11.70;;;3.88;;
48578;SDS011;34357;51.948;6.132;2023-01-01T15:32:52;16.35;;;4.18;;
48578;SDS011;34357;51.948;6.132;2023-01-01T15:35:20;12.70;;;4.25;;
48578;SDS011;34357;51.948;6.132;2023-01-01T15:38:00;17.10;;;4.28;;
48578;SDS011;34357;51.948;6.132;2023-01-01T15:40:29;21.25;;;4.03;;
48578;SDS011;34357;51.948;6.132;2023-01-01T15:45:38;16.42;;;4.15;;
48578;SDS011;34357;51.948;6.132;2023-01-01T15:50:38;16.23;;;3.95;;
48578;SDS011;34357;51.948;6.132;2023-01-01T15:55:53;12.93;;;3.65;;
48578;SDS011;34357;51.948;6.132;2023-01-01T15:58:34;13.65;;;3.75;;
48578;SDS011;34357;51.948;6.132;2023-01-01T16:01:07;14.02;;;4.80;;
48578;SDS011;34357;51.948;6.132;2023-01-01T16:03:35;16.27;;;5.07;;
48578;SDS011;34357;51.948;6.132;2023-01-01T16:06:02;14.73;;;5.15;;
48578;SDS011;34357;51.948;6.132;2023-01-01T16:08:28;17.30;;;3.90;;
48578;SDS011;34357;51.948;6.132;2023-01-01T16:10:55;17.02;;;4.32;;
48578;SDS011;34357;51.948;6.132;2023-01-01T16:13:21;18.65;;;5.10;;
48578;SDS011;34357;51.948;6.132;2023-01-01T16:18:32;16.42;;;4.15;;
48578;SDS011;34357;51.948;6.132;2023-01-01T16:21:00;16.90;;;3.90;;
48578;SDS011;34357;51.948;6.132;2023-01-01T16:23:26;17.33;;;5.05;;
48578;SDS011;34357;51.948;6.132;2023-01-01T16:25:52;15.52;;;4.32;;
48578;SDS011;34357;51.948;6.132;2023-01-01T16:28:18;13.38;;;4.35;;
48578;SDS011;34357;51.948;6.132;2023-01-01T16:30:44;13.40;;;4.22;;
48578;SDS011;34357;51.948;6.132;2023-01-01T16:33:13;21.33;;;5.20;;
48578;SDS011;34357;51.948;6.132;2023-01-01T16:35:40;16.95;;;4.97;;
48578;SDS011;34357;51.948;6.132;2023-01-01T16:38:06;20.00;;;5.53;;
48578;SDS011;34357;51.948;6.132;2023-01-01T16:40:32;16.33;;;4.88;;
48578;SDS011;34357;51.948;6.132;2023-01-01T16:42:58;16.90;;;4.78;;
48578;SDS011;34357;51.948;6.132;2023-01-01T16:45:23;16.75;;;3.95;;
48578;SDS011;34357;51.948;6.132;2023-01-01T16:47:49;13.55;;;3.67;;
48578;SDS011;34357;51.948;6.132;2023-01-01T16:50:15;21.95;;;13.48;;
48578;SDS011;34357;51.948;6.132;2023-01-01T16:52:41;24.45;;;4.45;;
48578;SDS011;34357;51.948;6.132;2023-01-01T16:55:07;17.33;;;4.50;;
48578;SDS011;34357;51.948;6.132;2023-01-01T16:57:33;18.23;;;4.65;;
48578;SDS011;34357;51.948;6.132;2023-01-01T16:59:59;16.90;;;4.35;;
48578;SDS011;34357;51.948;6.132;2023-01-01T17:02:26;14.80;;;4.30;;
48578;SDS011;34357;51.948;6.132;2023-01-01T17:04:53;18.23;;;6.28;;
48578;SDS011;34357;51.948;6.132;2023-01-01T17:07:18;18.83;;;5.70;;
48578;SDS011;34357;51.948;6.132;2023-01-01T17:09:44;16.35;;;4.97;;
48578;SDS011;34357;51.948;6.132;2023-01-01T17:12:10;16.58;;;4.55;;
48578;SDS011;34357;51.948;6.132;2023-01-01T17:14:35;18.88;;;4.53;;
48578;SDS011;34357;51.948;6.132;2023-01-01T17:17:03;15.35;;;4.60;;
48578;SDS011;34357;51.948;6.132;2023-01-01T17:19:32;18.58;;;5.60;;
48578;SDS011;34357;51.948;6.132;2023-01-01T17:21:58;20.85;;;5.30;;